sensor_id;sensor_type;location;lat;lon;timestamp;pressure;altitude;pressure_sealevel;temperature;humidity
38054;BME280;23859;50.672;7.164;2023-02-11T00:00:31;102666.13;;;4.72;100.00
38054;BME280;23859;50.672;7.164;2023-02-11T00:02:57;102661.06;;;4.66;100.00
38054;BME280;23859;50.672;7.164;2023-02-11T00:05:23;102671.66;;;4.63;100.00
38054;BME280;23859;50.672;7.164;2023-02-11T00:07:49;102668.84;;;4.69;100.00
38054;BME280;23859;50.672;7.164;2023-02-11T00:10:15;102671.81;;;4.86;100.00
38054;BME280;23859;50.672;7.164;2023-02-11T00:12:41;102670.09;;;4.85;100.00
38054;BME280;23859;50.672;7.164;2023-02-11T00:15:09;102666.03;;;4.75;100.00
38054;BME280;23859;50.672;7.164;2023-02-11T00:17:35;102664.97;;;4.80;100.00
38054;BME280;23859;50.672;7.164;2023-02-11T00:20:01;102667.44;;;4.85;100.00
38054;BME280;23859;50.672;7.164;2023-02-11T00:22:27;102660.69;;;4.78;100.00
38054;BME280;23859;50.672;7.164;2023-02-11T00:24:53;102662.38;;;4.79;100.00
38054;BME280;23859;50.672;7.164;2023-02-11T00:27:21;102663.63;;;4.67;100.00
38054;BME280;23859;50.672;7.164;2023-02-11T00:29:47;102655.31;;;4.81;100.00
38054;BME280;23859;50.672;7.164;2023-02-11T00:32:14;102665.25;;;4.71;100.00
38054;BME280;23859;50.672;7.164;2023-02-11T00:34:40;102648.75;;;4.66;100.00
38054;BME280;23859;50.672;7.164;2023-02-11T00:37:06;102651.34;;;4.68;100.00
38054;BME280;23859;50.672;7.164;2023-02-11T00:39:32;102646.16;;;4.65;100.00
38054;BME280;23859;50.672;7.164;2023-02-11T00:41:58;102640.25;;;4.59;100.00
38054;BME280;23859;50.672;7.164;2023-02-11T00:44:25;102638.19;;;4.68;100.00
38054;BME280;23859;50.672;7.164;2023-02-11T00:46:51;102637.38;;;4.66;100.00
38054;BME280;23859;50.672;7.164;2023-02-11T00:49:18;102633.13;;;4.62;100.00
38054;BME280;23859;50.672;7.164;2023-02-11T00:51:44;102637.63;;;4.59;100.00
38054;BME280;23859;50.672;7.164;2023-02-11T00:54:10;102635.13;;;4.54;100.00
38054;BME280;23859;50.672;7.164;2023-02-11T00:56:36;102637.19;;;4.72;100.00
38054;BME280;23859;50.672;7.164;2023-02-11T00:59:02;102633.38;;;4.53;100.00
38054;BME280;23859;50.672;7.164;2023-02-11T01:01:28;102634.09;;;4.58;100.00
38054;BME280;23859;50.672;7.164;2023-02-11T01:03:54;102626.47;;;4.51;100.00
38054;BME280;23859;50.672;7.164;2023-02-11T01:06:20;102633.63;;;4.46;100.00
38054;BME280;23859;50.672;7.164;2023-02-11T01:08:46;102635.31;;;4.48;100.00
38054;BME280;23859;50.672;7.164;2023-02-11T01:11:16;102622.78;;;4.56;100.00
38054;BME280;23859;50.672;7.164;2023-02-11T01:13:42;102629.66;;;4.60;100.00
38054;BME280;23859;50.672;7.164;2023-02-11T01:16:10;102629.50;;;4.37;100.00
38054;BME280;23859;50.672;7.164;2023-02-11T01:18:37;102628.97;;;4.26;100.00
38054;BME280;23859;50.672;7.164;2023-02-11T01:21:03;102636.09;;;4.24;100.00
38054;BME280;23859;50.672;7.164;2023-02-11T01:23:29;102625.81;;;4.15;100.00
38054;BME280;23859;50.672;7.164;2023-02-11T01:25:56;102629.94;;;4.24;100.00
38054;BME280;23859;50.672;7.164;2023-02-11T01:28:26;102622.94;;;4.24;100.00
38054;BME280;23859;50.672;7.164;2023-02-11T01:30:53;102616.22;;;4.14;100.00
38054;BME280;23859;50.672;7.164;2023-02-11T01:33:20;102612.91;;;4.08;100.00
38054;BME280;23859;50.672;7.164;2023-02-11T01:35:46;102618.16;;;4.08;100.00
38054;BME280;23859;50.672;7.164;2023-02-11T01:38:18;102620.00;;;4.06;100.00
38054;BME280;23859;50.672;7.164;2023-02-11T01:40:54;102623.25;;;4.14;100.00
38054;BME280;23859;50.672;7.164;2023-02-11T01:43:22;102630.63;;;4.01;100.00
38054;BME280;23859;50.672;7.164;2023-02-11T01:45:53;102638.53;;;4.01;100.00
38054;BME280;23859;50.672;7.164;2023-02-11T01:48:31;102636.19;;;3.93;100.00
38054;BME280;23859;50.672;7.164;2023-02-11T01:51:03;102638.81;;;3.93;100.00
38054;BME280;23859;50.672;7.164;2023-02-11T01:53:31;102640.16;;;3.77;100.00
38054;BME280;23859;50.672;7.164;2023-02-11T01:56:17;102629.06;;;3.66;100.00
38054;BME280;23859;50.672;7.164;2023-02-11T01:59:09;102628.16;;;3.67;100.00
38054;BME280;23859;50.672;7.164;2023-02-11T02:01:39;102628.97;;;3.69;100.00
38054;BME280;23859;50.672;7.164;2023-02-11T02:04:07;102633.97;;;3.78;100.00
38054;BME280;23859;50.672;7.164;2023-02-11T02:06:39;102632.50;;;3.68;100.00
38054;BME280;23859;50.672;7.164;2023-02-11T02:09:16;102639.59;;;3.64;100.00
38054;BME280;23859;50.672;7.164;2023-02-11T02:11:44;102643.34;;;3.56;100.00
38054;BME280;23859;50.672;7.164;2023-02-11T02:14:10;102648.38;;;3.65;100.00
38054;BME280;23859;50.672;7.164;2023-02-11T02:16:37;102642.34;;;3.61;100.00
38054;BME280;23859;50.672;7.164;2023-02-11T02:19:29;102644.34;;;3.52;100.00
38054;BME280;23859;50.672;7.164;2023-02-11T02:28:08;102646.97;;;3.52;100.00
38054;BME280;23859;50.672;7.164;2023-02-11T02:33:51;102626.91;;;3.80;100.00
38054;BME280;23859;50.672;7.164;2023-02-11T02:36:27;102624.56;;;3.69;100.00
38054;BME280;23859;50.672;7.164;2023-02-11T02:39:06;102619.53;;;3.62;100.00
38054;BME280;23859;50.672;7.164;2023-02-11T02:41:35;102629.06;;;3.66;100.00
38054;BME280;23859;50.672;7.164;2023-02-11T02:44:03;102615.00;;;3.68;100.00
38054;BME280;23859;50.672;7.164;2023-02-11T02:46:33;102614.72;;;3.77;100.00
38054;BME280;23859;50.672;7.164;2023-02-11T02:49:00;102620.81;;;3.78;100.00
38054;BME280;23859;50.672;7.164;2023-02-11T02:51:51;102623.66;;;3.70;100.00
38054;BME280;23859;50.672;7.164;2023-02-11T02:54:46;102626.19;;;3.75;100.00
38054;BME280;23859;50.672;7.164;2023-02-11T03:00:29;102635.13;;;3.68;100.00
38054;BME280;23859;50.672;7.164;2023-02-11T03:06:01;102632.78;;;3.59;100.00
38054;BME280;23859;50.672;7.164;2023-02-11T03:08:33;102626.72;;;3.55;100.00
38054;BME280;23859;50.672;7.164;2023-02-11T03:11:03;102612.53;;;3.62;100.00
38054;BME280;23859;50.672;7.164;2023-02-11T03:13:33;102583.44;;;3.68;100.00
38054;BME280;23859;50.672;7.164;2023-02-11T03:16:08;102578.75;;;3.49;100.00
38054;BME280;23859;50.672;7.164;2023-02-11T03:18:36;102571.13;;;3.40;100.00
38054;BME280;23859;50.672;7.164;2023-02-11T03:21:05;102586.88;;;3.40;100.00
38054;BME280;23859;50.672;7.164;2023-02-11T03:23:38;102588.75;;;3.35;100.00
38054;BME280;23859;50.672;7.164;2023-02-11T03:29:14;102597.06;;;3.20;100.00
38054;BME280;23859;50.672;7.164;2023-02-11T03:32:03;102603.34;;;3.15;100.00
38054;BME280;23859;50.672;7.164;2023-02-11T03:34:55;102600.84;;;3.10;100.00
38054;BME280;23859;50.672;7.164;2023-02-11T03:42:53;102603.50;;;3.09;100.00
38054;BME280;23859;50.672;7.164;2023-02-11T03:45:23;102604.69;;;2.97;100.00
38054;BME280;23859;50.672;7.164;2023-02-11T03:47:54;102607.19;;;3.02;100.00
38054;BME280;23859;50.672;7.164;2023-02-11T03:50:23;102603.03;;;2.93;100.00
38054;BME280;23859;50.672;7.164;2023-02-11T03:52:51;102606.53;;;2.94;100.00
38054;BME280;23859;50.672;7.164;2023-02-11T03:55:20;102589.97;;;2.92;100.00
38054;BME280;23859;50.672;7.164;2023-02-11T03:57:48;102582.94;;;2.92;100.00
38054;BME280;23859;50.672;7.164;2023-02-11T04:00:14;102578.63;;;2.91;100.00
38054;BME280;23859;50.672;7.164;2023-02-11T04:02:41;102575.78;;;2.99;100.00
38054;BME280;23859;50.672;7.164;2023-02-11T04:05:10;102595.22;;;2.92;100.00
38054;BME280;23859;50.672;7.164;2023-02-11T04:07:37;102589.38;;;2.81;100.00
38054;BME280;23859;50.672;7.164;2023-02-11T04:10:04;102589.56;;;2.73;100.00
38054;BME280;23859;50.672;7.164;2023-02-11T04:12:30;102579.28;;;2.66;100.00
38054;BME280;23859;50.672;7.164;2023-02-11T04:14:56;102588.72;;;2.71;100.00
38054;BME280;23859;50.672;7.164;2023-02-11T04:17:23;102583.81;;;2.58;100.00
38054;BME280;23859;50.672;7.164;2023-02-11T04:19:49;102595.25;;;2.56;100.00
38054;BME280;23859;50.672;7.164;2023-02-11T04:22:15;102503.88;;;2.04;100.00
38054;BME280;23859;50.672;7.164;2023-02-11T04:24:41;102580.94;;;2.68;100.00
38054;BME280;23859;50.672;7.164;2023-02-11T04:27:09;102581.75;;;2.70;100.00
38054;BME280;23859;50.672;7.164;2023-02-11T04:29:35;102588.38;;;2.52;100.00
38054;BME280;23859;50.672;7.164;2023-02-11T04:32:01;102588.59;;;2.43;100.00
38054;BME280;23859;50.672;7.164;2023-02-11T04:34:27;102579.66;;;2.50;100.00
38054;BME280;23859;50.672;7.164;2023-02-11T04:36:53;102580.06;;;2.69;100.00
38054;BME280;23859;50.672;7.164;2023-02-11T04:39:19;102576.69;;;2.63;100.00
38054;BME280;23859;50.672;7.164;2023-02-11T04:41:45;102570.66;;;2.60;100.00
38054;BME280;23859;50.672;7.164;2023-02-11T04:44:11;102572.78;;;2.46;100.00
38054;BME280;23859;50.672;7.164;2023-02-11T04:46:37;102578.78;;;2.51;100.00
38054;BME280;23859;50.672;7.164;2023-02-11T04:49:03;102578.72;;;2.54;100.00
38054;BME280;23859;50.672;7.164;2023-02-11T04:51:30;102578.66;;;2.55;100.00
38054;BME280;23859;50.672;7.164;2023-02-11T04:53:56;102566.69;;;2.45;100.00
38054;BME280;23859;50.672;7.164;2023-02-11T04:56:22;102568.22;;;2.54;100.00
38054;BME280;23859;50.672;7.164;2023-02-11T04:58:49;102562.31;;;2.44;100.00
38054;BME280;23859;50.672;7.164;2023-02-11T05:01:15;102555.41;;;2.42;100.00
38054;BME280;23859;50.672;7.164;2023-02-11T05:03:42;102564.72;;;2.53;100.00
38054;BME280;23859;50.672;7.164;2023-02-11T05:06:09;102555.81;;;2.60;100.00
38054;BME280;23859;50.672;7.164;2023-02-11T05:08:36;102563.56;;;2.64;100.00
38054;BME280;23859;50.672;7.164;2023-02-11T05:11:02;102555.56;;;2.69;100.00
38054;BME280;23859;50.672;7.164;2023-02-11T05:13:29;102553.56;;;2.78;100.00
38054;BME280;23859;50.672;7.164;2023-02-11T05:15:55;102549.06;;;2.83;100.00
38054;BME280;23859;50.672;7.164;2023-02-11T05:18:21;102552.44;;;2.88;100.00
38054;BME280;23859;50.672;7.164;2023-02-11T05:20:47;102559.09;;;3.01;100.00
38054;BME280;23859;50.672;7.164;2023-02-11T05:23:13;102572.69;;;3.15;100.00
38054;BME280;23859;50.672;7.164;2023-02-11T05:25:39;102554.41;;;3.12;100.00
38054;BME280;23859;50.672;7.164;2023-02-11T05:28:06;102555.00;;;3.23;100.00
38054;BME280;23859;50.672;7.164;2023-02-11T05:30:32;102556.63;;;3.27;100.00
38054;BME280;23859;50.672;7.164;2023-02-11T05:32:58;102566.06;;;3.32;100.00
38054;BME280;23859;50.672;7.164;2023-02-11T05:35:24;102561.78;;;3.30;100.00
38054;BME280;23859;50.672;7.164;2023-02-11T05:37:50;102559.84;;;3.36;100.00
38054;BME280;23859;50.672;7.164;2023-02-11T05:40:16;102560.38;;;3.49;100.00
38054;BME280;23859;50.672;7.164;2023-02-11T05:42:42;102565.44;;;3.55;100.00
38054;BME280;23859;50.672;7.164;2023-02-11T05:45:09;102565.13;;;3.35;100.00
38054;BME280;23859;50.672;7.164;2023-02-11T05:47:35;102562.72;;;3.28;100.00
38054;BME280;23859;50.672;7.164;2023-02-11T05:50:01;102567.13;;;3.27;100.00
38054;BME280;23859;50.672;7.164;2023-02-11T05:52:27;102557.41;;;3.30;100.00
38054;BME280;23859;50.672;7.164;2023-02-11T05:54:53;102558.06;;;3.37;100.00
38054;BME280;23859;50.672;7.164;2023-02-11T05:57:19;102543.88;;;3.44;100.00
38054;BME280;23859;50.672;7.164;2023-02-11T05:59:45;102549.84;;;3.49;100.00
38054;BME280;23859;50.672;7.164;2023-02-11T06:02:12;102542.38;;;3.64;100.00
38054;BME280;23859;50.672;7.164;2023-02-11T06:04:38;102539.72;;;3.66;100.00
38054;BME280;23859;50.672;7.164;2023-02-11T06:07:04;102535.03;;;3.75;100.00
38054;BME280;23859;50.672;7.164;2023-02-11T06:09:30;102537.72;;;3.74;100.00
38054;BME280;23859;50.672;7.164;2023-02-11T06:11:56;102531.63;;;3.73;100.00
38054;BME280;23859;50.672;7.164;2023-02-11T06:14:22;102530.66;;;3.76;100.00
38054;BME280;23859;50.672;7.164;2023-02-11T06:16:48;102533.13;;;3.80;100.00
38054;BME280;23859;50.672;7.164;2023-02-11T06:19:14;102534.72;;;3.86;100.00
38054;BME280;23859;50.672;7.164;2023-02-11T06:21:40;102537.13;;;3.93;100.00
38054;BME280;23859;50.672;7.164;2023-02-11T06:24:07;102532.69;;;3.95;100.00
38054;BME280;23859;50.672;7.164;2023-02-11T06:26:33;102527.25;;;3.99;100.00
38054;BME280;23859;50.672;7.164;2023-02-11T06:29:00;102524.38;;;4.07;100.00
38054;BME280;23859;50.672;7.164;2023-02-11T06:31:27;102521.75;;;4.08;100.00
38054;BME280;23859;50.672;7.164;2023-02-11T06:33:53;102510.19;;;4.12;100.00
38054;BME280;23859;50.672;7.164;2023-02-11T06:36:21;102516.47;;;4.08;100.00
38054;BME280;23859;50.672;7.164;2023-02-11T06:38:48;102517.97;;;4.17;100.00
38054;BME280;23859;50.672;7.164;2023-02-11T06:41:16;102522.44;;;4.13;100.00
38054;BME280;23859;50.672;7.164;2023-02-11T06:43:43;102522.34;;;4.16;100.00
38054;BME280;23859;50.672;7.164;2023-02-11T06:46:09;102520.59;;;4.17;100.00
38054;BME280;23859;50.672;7.164;2023-02-11T06:48:35;102524.19;;;4.14;100.00
38054;BME280;23859;50.672;7.164;2023-02-11T06:51:02;102537.50;;;4.08;100.00
38054;BME280;23859;50.672;7.164;2023-02-11T06:53:30;102549.13;;;4.01;100.00
38054;BME280;23859;50.672;7.164;2023-02-11T06:56:00;102550.97;;;4.25;100.00
38054;BME280;23859;50.672;7.164;2023-02-11T06:58:27;102563.75;;;4.37;100.00
38054;BME280;23859;50.672;7.164;2023-02-11T07:00:53;102559.56;;;4.32;100.00
38054;BME280;23859;50.672;7.164;2023-02-11T07:03:19;102567.69;;;4.24;100.00
38054;BME280;23859;50.672;7.164;2023-02-11T07:05:45;102564.59;;;4.10;100.00
38054;BME280;23859;50.672;7.164;2023-02-11T07:08:11;102566.53;;;4.05;100.00
38054;BME280;23859;50.672;7.164;2023-02-11T07:10:37;102568.34;;;4.03;100.00
38054;BME280;23859;50.672;7.164;2023-02-11T07:13:03;102568.22;;;3.79;100.00
38054;BME280;23859;50.672;7.164;2023-02-11T07:15:29;102567.22;;;3.83;100.00
38054;BME280;23859;50.672;7.164;2023-02-11T07:17:55;102565.09;;;3.95;100.00
38054;BME280;23859;50.672;7.164;2023-02-11T07:20:21;102566.03;;;3.93;100.00
38054;BME280;23859;50.672;7.164;2023-02-11T07:22:47;102559.00;;;3.93;100.00
38054;BME280;23859;50.672;7.164;2023-02-11T07:25:13;102571.41;;;3.90;100.00
38054;BME280;23859;50.672;7.164;2023-02-11T07:27:39;102568.63;;;3.94;100.00
38054;BME280;23859;50.672;7.164;2023-02-11T07:30:06;102574.34;;;4.08;100.00
38054;BME280;23859;50.672;7.164;2023-02-11T07:32:32;102574.09;;;4.16;100.00
38054;BME280;23859;50.672;7.164;2023-02-11T07:34:58;102584.25;;;4.26;100.00
38054;BME280;23859;50.672;7.164;2023-02-11T07:37:24;102578.16;;;4.26;100.00
38054;BME280;23859;50.672;7.164;2023-02-11T07:39:50;102587.00;;;4.23;100.00
38054;BME280;23859;50.672;7.164;2023-02-11T07:42:16;102581.44;;;4.32;100.00
38054;BME280;23859;50.672;7.164;2023-02-11T07:44:42;102590.09;;;4.36;100.00
38054;BME280;23859;50.672;7.164;2023-02-11T07:47:08;102589.19;;;4.37;100.00
38054;BME280;23859;50.672;7.164;2023-02-11T07:49:34;102582.41;;;4.30;100.00
38054;BME280;23859;50.672;7.164;2023-02-11T07:52:00;102581.50;;;4.31;100.00
38054;BME280;23859;50.672;7.164;2023-02-11T07:54:26;102583.47;;;4.24;100.00
38054;BME280;23859;50.672;7.164;2023-02-11T07:56:52;102586.13;;;4.23;100.00
38054;BME280;23859;50.672;7.164;2023-02-11T07:59:18;102415.09;;;3.18;100.00
38054;BME280;23859;50.672;7.164;2023-02-11T08:01:44;102597.41;;;4.28;100.00
38054;BME280;23859;50.672;7.164;2023-02-11T08:04:10;102594.47;;;4.37;100.00
38054;BME280;23859;50.672;7.164;2023-02-11T08:06:40;102599.00;;;4.32;100.00
38054;BME280;23859;50.672;7.164;2023-02-11T08:09:08;102598.13;;;4.31;100.00
38054;BME280;23859;50.672;7.164;2023-02-11T08:11:35;102604.22;;;4.33;100.00
38054;BME280;23859;50.672;7.164;2023-02-11T08:14:02;102611.56;;;4.50;100.00
38054;BME280;23859;50.672;7.164;2023-02-11T08:16:30;102613.41;;;4.48;100.00
38054;BME280;23859;50.672;7.164;2023-02-11T08:18:59;102614.38;;;4.45;100.00
38054;BME280;23859;50.672;7.164;2023-02-11T08:21:26;102603.31;;;4.34;100.00
38054;BME280;23859;50.672;7.164;2023-02-11T08:23:52;102603.91;;;4.42;100.00
38054;BME280;23859;50.672;7.164;2023-02-11T08:26:21;102609.19;;;4.42;100.00
38054;BME280;23859;50.672;7.164;2023-02-11T08:28:48;102608.22;;;4.45;100.00
38054;BME280;23859;50.672;7.164;2023-02-11T08:31:19;102617.53;;;4.56;100.00
38054;BME280;23859;50.672;7.164;2023-02-11T08:33:46;102622.78;;;4.56;100.00
38054;BME280;23859;50.672;7.164;2023-02-11T08:36:15;102621.97;;;4.54;100.00
38054;BME280;23859;50.672;7.164;2023-02-11T08:38:43;102629.94;;;4.78;100.00
38054;BME280;23859;50.672;7.164;2023-02-11T08:41:09;102630.31;;;4.66;100.00
38054;BME280;23859;50.672;7.164;2023-02-11T08:43:36;102630.94;;;4.74;100.00
38054;BME280;23859;50.672;7.164;2023-02-11T08:46:07;102625.63;;;4.76;100.00
38054;BME280;23859;50.672;7.164;2023-02-11T08:48:33;102624.59;;;4.80;100.00
38054;BME280;23859;50.672;7.164;2023-02-11T08:51:04;102625.22;;;4.88;100.00
38054;BME280;23859;50.672;7.164;2023-02-11T08:53:30;102611.00;;;4.93;100.00
38054;BME280;23859;50.672;7.164;2023-02-11T08:55:56;102613.59;;;4.95;100.00
38054;BME280;23859;50.672;7.164;2023-02-11T08:58:22;102624.34;;;4.87;100.00
38054;BME280;23859;50.672;7.164;2023-02-11T09:00:49;102618.03;;;4.93;100.00
38054;BME280;23859;50.672;7.164;2023-02-11T09:03:15;102614.53;;;4.92;100.00
38054;BME280;23859;50.672;7.164;2023-02-11T09:05:46;102620.16;;;5.08;100.00
38054;BME280;23859;50.672;7.164;2023-02-11T09:08:13;102619.56;;;5.00;100.00
38054;BME280;23859;50.672;7.164;2023-02-11T09:10:39;102511.50;;;4.25;100.00
38054;BME280;23859;50.672;7.164;2023-02-11T09:13:06;102627.66;;;4.94;100.00
38054;BME280;23859;50.672;7.164;2023-02-11T09:15:32;102627.41;;;5.01;100.00
38054;BME280;23859;50.672;7.164;2023-02-11T09:17:58;102626.53;;;5.01;100.00
38054;BME280;23859;50.672;7.164;2023-02-11T09:20:25;102643.22;;;5.01;100.00
38054;BME280;23859;50.672;7.164;2023-02-11T09:22:52;102647.25;;;5.11;100.00
38054;BME280;23859;50.672;7.164;2023-02-11T09:25:19;102652.47;;;5.13;100.00
38054;BME280;23859;50.672;7.164;2023-02-11T09:27:45;102645.38;;;5.15;100.00
38054;BME280;23859;50.672;7.164;2023-02-11T09:30:11;102648.09;;;5.37;100.00
38054;BME280;23859;50.672;7.164;2023-02-11T09:32:37;102651.25;;;5.23;100.00
38054;BME280;23859;50.672;7.164;2023-02-11T09:35:04;102664.13;;;5.31;100.00
38054;BME280;23859;50.672;7.164;2023-02-11T09:37:30;102658.84;;;5.31;100.00
38054;BME280;23859;50.672;7.164;2023-02-11T09:39:56;102667.66;;;5.30;100.00
38054;BME280;23859;50.672;7.164;2023-02-11T09:45:21;102664.97;;;5.32;100.00
38054;BME280;23859;50.672;7.164;2023-02-11T09:48:12;102670.56;;;5.23;100.00
38054;BME280;23859;50.672;7.164;2023-02-11T09:50:42;102671.72;;;5.40;100.00
38054;BME280;23859;50.672;7.164;2023-02-11T09:53:25;102666.56;;;5.36;100.00
38054;BME280;23859;50.672;7.164;2023-02-11T09:55:54;102665.78;;;5.34;100.00
38054;BME280;23859;50.672;7.164;2023-02-11T09:58:32;102658.59;;;5.63;100.00
38054;BME280;23859;50.672;7.164;2023-02-11T10:06:54;102669.25;;;5.85;100.00
38054;BME280;23859;50.672;7.164;2023-02-11T10:09:45;102665.19;;;5.99;99.61
38054;BME280;23859;50.672;7.164;2023-02-11T10:20:30;102671.84;;;6.09;99.58
38054;BME280;23859;50.672;7.164;2023-02-11T10:23:00;102678.69;;;6.14;99.74
38054;BME280;23859;50.672;7.164;2023-02-11T10:28:00;102668.53;;;6.27;99.83
38054;BME280;23859;50.672;7.164;2023-02-11T10:30:36;102671.69;;;6.36;99.20
38054;BME280;23859;50.672;7.164;2023-02-11T10:33:14;102673.59;;;6.54;98.38
38054;BME280;23859;50.672;7.164;2023-02-11T10:35:45;102662.53;;;6.45;98.75
38054;BME280;23859;50.672;7.164;2023-02-11T10:38:11;102661.13;;;6.58;97.98
38054;BME280;23859;50.672;7.164;2023-02-11T10:40:37;102667.78;;;6.67;97.82
38054;BME280;23859;50.672;7.164;2023-02-11T10:43:11;102667.16;;;6.61;98.04
38054;BME280;23859;50.672;7.164;2023-02-11T10:45:42;102666.56;;;6.55;97.32
38054;BME280;23859;50.672;7.164;2023-02-11T10:53:48;102670.72;;;6.39;99.23
38054;BME280;23859;50.672;7.164;2023-02-11T10:56:24;102667.88;;;6.43;98.87
38054;BME280;23859;50.672;7.164;2023-02-11T11:01:48;102672.81;;;6.73;98.10
38054;BME280;23859;50.672;7.164;2023-02-11T11:10:02;102673.50;;;6.57;98.58
38054;BME280;23859;50.672;7.164;2023-02-11T11:12:45;102674.16;;;6.83;97.51
38054;BME280;23859;50.672;7.164;2023-02-11T11:15:26;102671.22;;;6.69;97.06
38054;BME280;23859;50.672;7.164;2023-02-11T11:18:17;102669.00;;;6.80;97.05
38054;BME280;23859;50.672;7.164;2023-02-11T11:21:04;102663.84;;;6.77;97.09
38054;BME280;23859;50.672;7.164;2023-02-11T11:23:35;102655.81;;;6.80;96.29
38054;BME280;23859;50.672;7.164;2023-02-11T11:26:11;102661.50;;;6.91;95.88
38054;BME280;23859;50.672;7.164;2023-02-11T11:28:54;102661.56;;;6.68;97.28
38054;BME280;23859;50.672;7.164;2023-02-11T11:31:27;102659.06;;;6.87;97.29
38054;BME280;23859;50.672;7.164;2023-02-11T11:33:56;102655.56;;;6.86;96.89
38054;BME280;23859;50.672;7.164;2023-02-11T11:36:34;102648.56;;;6.85;97.47
38054;BME280;23859;50.672;7.164;2023-02-11T11:39:14;102655.59;;;7.06;96.64
38054;BME280;23859;50.672;7.164;2023-02-11T11:41:53;102650.44;;;6.82;97.46
38054;BME280;23859;50.672;7.164;2023-02-11T11:44:31;102647.81;;;6.82;97.67
38054;BME280;23859;50.672;7.164;2023-02-11T11:47:20;102638.78;;;6.87;98.04
38054;BME280;23859;50.672;7.164;2023-02-11T11:50:13;102650.44;;;7.03;97.22
38054;BME280;23859;50.672;7.164;2023-02-11T11:55:33;102634.34;;;7.29;96.05
38054;BME280;23859;50.672;7.164;2023-02-11T11:58:00;102627.44;;;7.25;95.96
38054;BME280;23859;50.672;7.164;2023-02-11T12:03:21;102632.44;;;7.32;96.50
38054;BME280;23859;50.672;7.164;2023-02-11T12:11:13;102625.88;;;7.41;95.51
38054;BME280;23859;50.672;7.164;2023-02-11T12:13:55;102642.41;;;7.46;95.91
38054;BME280;23859;50.672;7.164;2023-02-11T12:16:50;102630.94;;;7.65;95.25
38054;BME280;23859;50.672;7.164;2023-02-11T12:22:24;102642.97;;;7.72;94.28
38054;BME280;23859;50.672;7.164;2023-02-11T12:25:21;102635.50;;;7.82;93.63
38054;BME280;23859;50.672;7.164;2023-02-11T12:28:31;102638.56;;;7.73;94.08
38054;BME280;23859;50.672;7.164;2023-02-11T12:36:44;102629.88;;;8.07;92.43
38054;BME280;23859;50.672;7.164;2023-02-11T12:45:30;102637.97;;;8.04;93.48
38054;BME280;23859;50.672;7.164;2023-02-11T12:53:45;102646.56;;;8.09;92.93
38054;BME280;23859;50.672;7.164;2023-02-11T12:56:25;102641.66;;;8.20;92.67
38054;BME280;23859;50.672;7.164;2023-02-11T12:58:56;102645.88;;;8.24;92.72
38054;BME280;23859;50.672;7.164;2023-02-11T13:01:33;102639.16;;;8.17;92.80
38054;BME280;23859;50.672;7.164;2023-02-11T13:04:32;102636.56;;;8.16;92.97
38054;BME280;23859;50.672;7.164;2023-02-11T13:07:16;102636.69;;;8.13;93.63
38054;BME280;23859;50.672;7.164;2023-02-11T13:09:57;102635.09;;;8.29;93.54
38054;BME280;23859;50.672;7.164;2023-02-11T13:12:24;102640.50;;;8.44;92.19
38054;BME280;23859;50.672;7.164;2023-02-11T13:15:17;102637.00;;;8.44;92.39
38054;BME280;23859;50.672;7.164;2023-02-11T13:18:01;102642.88;;;8.50;92.36
38054;BME280;23859;50.672;7.164;2023-02-11T13:20:50;102641.38;;;8.45;92.73
38054;BME280;23859;50.672;7.164;2023-02-11T13:23:36;102621.97;;;8.44;92.33
38054;BME280;23859;50.672;7.164;2023-02-11T13:26:23;102627.13;;;8.47;92.30
38054;BME280;23859;50.672;7.164;2023-02-11T13:32:06;102635.38;;;8.41;93.10
38054;BME280;23859;50.672;7.164;2023-02-11T13:37:35;102622.06;;;8.24;94.49
38054;BME280;23859;50.672;7.164;2023-02-11T13:42:51;102619.84;;;8.15;96.10
38054;BME280;23859;50.672;7.164;2023-02-11T13:48:02;102617.88;;;8.19;96.39
38054;BME280;23859;50.672;7.164;2023-02-11T13:50:37;102615.22;;;8.19;97.19
38054;BME280;23859;50.672;7.164;2023-02-11T13:53:05;102620.19;;;8.26;96.93
38054;BME280;23859;50.672;7.164;2023-02-11T13:55:33;102623.50;;;8.31;97.32
38054;BME280;23859;50.672;7.164;2023-02-11T14:09:32;102612.94;;;8.48;98.28
38054;BME280;23859;50.672;7.164;2023-02-11T14:12:30;102614.44;;;8.54;98.02
38054;BME280;23859;50.672;7.164;2023-02-11T14:17:34;102617.59;;;8.43;98.64
38054;BME280;23859;50.672;7.164;2023-02-11T14:20:02;102608.16;;;8.38;99.79
38054;BME280;23859;50.672;7.164;2023-02-11T14:22:41;102611.59;;;8.40;99.77
38054;BME280;23859;50.672;7.164;2023-02-11T14:25:21;102611.25;;;8.47;99.59
38054;BME280;23859;50.672;7.164;2023-02-11T14:27:56;102620.09;;;8.46;99.79
38054;BME280;23859;50.672;7.164;2023-02-11T14:33:00;102625.97;;;8.53;99.52
38054;BME280;23859;50.672;7.164;2023-02-11T14:41:30;102622.84;;;8.26;100.00
38054;BME280;23859;50.672;7.164;2023-02-11T14:44:05;102631.91;;;8.39;100.00
38054;BME280;23859;50.672;7.164;2023-02-11T14:46:34;102629.78;;;8.29;100.00
38054;BME280;23859;50.672;7.164;2023-02-11T14:49:02;102630.28;;;8.37;100.00
38054;BME280;23859;50.672;7.164;2023-02-11T14:51:35;102622.19;;;8.21;100.00
38054;BME280;23859;50.672;7.164;2023-02-11T14:54:13;102625.97;;;8.34;100.00
38054;BME280;23859;50.672;7.164;2023-02-11T14:56:42;102624.63;;;8.26;100.00
38054;BME280;23859;50.672;7.164;2023-02-11T14:59:17;102628.16;;;8.26;100.00
38054;BME280;23859;50.672;7.164;2023-02-11T15:01:48;102627.44;;;8.23;100.00
38054;BME280;23859;50.672;7.164;2023-02-11T15:04:32;102626.53;;;8.22;100.00
38054;BME280;23859;50.672;7.164;2023-02-11T15:07:04;102620.88;;;8.30;100.00
38054;BME280;23859;50.672;7.164;2023-02-11T15:12:04;102620.31;;;8.42;100.00
38054;BME280;23859;50.672;7.164;2023-02-11T15:14:33;102624.47;;;8.47;100.00